Aviation Digital Data Service (ADDS)

Output produced by METARs form (0142 UTC 23 November 2017)
found at http://www.aviationweather.gov/adds/metars/
 
LUKK 230130Z VRB02KT 0100 R08/P2000N PRFG NSC M04/M04 Q1020 R08/CLRD// TEMPO 0200 FZFG
TAF LUKK 222320Z 2300/2324 VRB02KT 1500 BR BKN004 
     TEMPO 2300/2307 0200 FZFG VV/// 
     BECMG 2307/2309 6000 NSW BKN015 
     BECMG 2315/2317 13006KT 3000 BR BKN006 
     TEMPO 2320/2324 1200 BKN002
       
LUKK 230130Z VRB02KT 0100 R08/P2000N PRFG NSC M04/M04 Q1020 R08/CLRD// TEMPO 0200 FZFG
TAF LUKK 222320Z 2300/2324 VRB02KT 1500 BR BKN004 
     TEMPO 2300/2307 0200 FZFG VV/// 
     BECMG 2307/2309 6000 NSW BKN015 
     BECMG 2315/2317 13006KT 3000 BR BKN006 
     TEMPO 2320/2324 1200 BKN002